Brookley Field, Alabama
Current Conditions -  °F | °C
As of 4:53 PM on Monday 22 Dec 2014 (Local Time) from KBFM Reporting Station
Scattered Clouds Scattered Clouds  
Wind Chill: 19°   Ceiling: Unl
Heat Index: 19°   Visibility: 8mi
Dew Point: 18°   Wind: 6mph
Humidity: 93%   Direction: 160°SSE
Pressure: 29.78"   Gusts: NA
Location:  30.641°N, 88.065°W
Report Text: KBFM 222253Z 16005KT 8SM FEW032 SCT046 SCT060 19/18 A2978 RMK AO2 SLP082 T01890178
Loading
Personal Weather Stations






























Interactive Weather Map New forecast layout! Learn more

10-Day Weather Forecast

Advertisements
Track Severe Weather on mobile